Accueil
METAR-TAF:

METAR-TAF

Aéroports :

Aéroport international de Malé

Malé, Maldives

latitude: 04-12N, longitude: 073-32E, altitude: 2 m

Observation

Le bulletin a été fait il y a 1 heure et 12 minutes, à 17:00 UTC
Vent 8 kt de ouest
Température 29°C
Humidité 74%
Pression 1013 hPa
Visibilité 10 km ou plus
Nuages épars à une hauteur de 1800 ft, Cumulus congestus.
Nuages fragmentés à une hauteur de 28000 ft

METAR: VRMM 221700Z 28008KT 9999 SCT018TCU BKN280 29/24 Q1013 NOSIG

Heure: 23:12 (18:12 UTC)

Prévision

Le bulletin a été fait il y a 1 heure et 12 minutes, à 17:00 UTC
Prévision valable du 22 à 18 UTC au 23 à 24 UTC
Vent 10 kt de ouest
Visibilité 10 km ou plus
Quelques nuages à une hauteur de 1800 ft
Temporairement
du 22 à 20 UTC au 23 à 02 UTC
Visibilité: 5000 m
Quelques nuages à une hauteur de 1800 ft, Cumulonimbus.
faibles averses de pluie

TAF: VRMM 221700Z 2218/2324 27010KT 9999 FEW018 TEMPO 2220/2302 5000 -SHRA FEW018CB

Observations et prévisions météorologiques de plus de 4000 aéroports (messages METAR et TAF).

Les stations disponibles sont représentées par des disques jaunes et rouges sur la carte.

Passer la souris dessus pour voir le nom de la station.

Cliquer dessus pour voir les observations et prévisions météorologiques.

Pour changer de carte: cliquez sur les boutons verts avec une croix noire pour zoomer, sur le bouton vert avec un tiret pour effectuer un zoom arrière, ou sur les flèches vertes pour les cartes adjacentes.


METAR-TAF: